Time;durP1;ratioP1;P1;durP2;ratioP2;P2;SDS_P1;SDS_P2;PMS_P1;PMS_P2;Temp;Humidity;BMP_temperature;BMP_pressure;BME280_temperature;BME280_humidity;BME280_pressure;Samples;Min_cycle;Max_cycle;Signal;HPM_P1;HPM_P2
2023/11/21 00:01:40;;;;;;;18.80;12.60;;;;;;;4.71;100.00;96817.27;110214;1241;68325;-67
2023/11/21 00:04:12;;;;;;;22.30;13.60;;;;;;;4.71;100.00;96816.75;110165;1243;59747;-67
2023/11/21 00:06:46;;;;;;;21.00;13.60;;;;;;;4.70;100.00;96812.47;110196;1242;59681;-67
2023/11/21 00:09:19;;;;;;;19.80;14.30;;;;;;;4.69;100.00;96815.31;110217;1242;70805;-67
2023/11/21 00:11:50;;;;;;;18.50;13.30;;;;;;;4.68;100.00;96812.64;110192;1242;69233;-67
2023/11/21 00:14:22;;;;;;;18.80;12.80;;;;;;;4.67;100.00;96818.19;110245;1241;69295;-67
2023/11/21 00:16:54;;;;;;;26.70;17.50;;;;;;;4.66;100.00;96816.99;110261;1242;59702;-67
2023/11/21 00:19:28;;;;;;;20.50;13.80;;;;;;;4.67;100.00;96813.70;110253;1242;59734;-67
2023/11/21 00:22:00;;;;;;;24.00;15.20;;;;;;;4.67;100.00;96816.63;110265;1241;71219;-67
2023/11/21 00:24:31;;;;;;;22.30;14.40;;;;;;;4.69;100.00;96819.26;110259;1242;69262;-67
2023/11/21 00:27:06;;;;;;;20.60;13.90;;;;;;;4.71;100.00;96821.56;110268;1241;69194;-67
2023/11/21 00:29:38;;;;;;;24.30;16.30;;;;;;;4.72;100.00;96823.77;110266;1242;59676;-67
2023/11/21 00:32:09;;;;;;;21.70;15.40;;;;;;;4.73;100.00;96824.20;110290;1242;59744;-67
2023/11/21 00:34:40;;;;;;;21.80;14.60;;;;;;;4.73;100.00;96824.02;110252;1241;70578;-67
2023/11/21 00:37:11;;;;;;;22.10;14.50;;;;;;;4.73;100.00;96825.06;110235;1242;68630;-68
2023/11/21 00:39:41;;;;;;;28.80;18.80;;;;;;;4.73;100.00;96821.84;110192;1241;69613;-67
2023/11/21 00:42:13;;;;;;;24.60;17.40;;;;;;;4.72;100.00;96823.09;110210;1242;59814;-67
2023/11/21 00:44:43;;;;;;;23.80;16.30;;;;;;;4.72;100.00;96819.46;110187;1242;59631;-66
2023/11/21 00:47:13;;;;;;;;;;;;;;;4.72;100.00;96821.71;110206;1241;70700;-67
2023/11/21 00:49:44;;;;;;;25.40;16.50;;;;;;;4.72;100.00;96823.59;110171;1245;69296;-67
2023/11/21 00:52:14;;;;;;;23.30;15.80;;;;;;;4.73;100.00;96814.55;110151;1246;68337;-67
2023/11/21 00:54:44;;;;;;;;;;;;;;;4.74;100.00;96805.72;110103;1245;59684;-67
2023/11/21 00:57:16;;;;;;;23.80;15.70;;;;;;;4.73;100.00;96812.85;110180;1240;59700;-67
2023/11/21 00:59:47;;;;;;;20.60;15.00;;;;;;;4.73;100.00;96811.13;110088;1241;71312;-67
2023/11/21 01:02:21;;;;;;;18.80;14.00;;;;;;;4.73;100.00;96806.63;110236;1240;68284;-67
2023/11/21 01:04:59;;;;;;;20.70;12.80;;;;;;;4.73;100.00;96807.63;110131;1240;69730;-67
2023/11/21 01:07:31;;;;;;;18.00;12.00;;;;;;;4.74;100.00;96807.57;110223;1243;59802;-67
2023/11/21 01:10:00;;;;;;;;;;;;;;;4.75;100.00;96813.38;110178;1242;59634;-67
2023/11/21 01:12:33;;;;;;;24.60;17.20;;;;;;;4.76;100.00;96811.27;110214;1242;71428;-67
2023/11/21 01:15:11;;;;;;;20.00;14.20;;;;;;;4.76;100.00;96804.67;110108;1245;68680;-67
2023/11/21 01:17:43;;;;;;;22.20;14.40;;;;;;;4.76;100.00;96797.61;110197;1243;69394;-67
2023/11/21 01:20:15;;;;;;;19.70;13.40;;;;;;;4.76;100.00;96793.32;110115;1241;60098;-67
2023/11/21 01:22:51;;;;;;;20.20;13.00;;;;;;;4.75;100.00;96798.86;110130;1244;59739;-67
2023/11/21 01:25:37;;;;;;;19.00;12.70;;;;;;;4.75;100.00;96802.67;110218;1242;71719;-67
2023/11/21 01:28:11;;;;;;;17.50;12.10;;;;;;;4.75;100.00;96795.27;110182;1241;69241;-67
2023/11/21 01:30:44;;;;;;;17.90;12.50;;;;;;;4.76;100.00;96795.57;110086;1245;69378;-67
2023/11/21 01:33:18;;;;;;;19.40;14.60;;;;;;;4.76;100.00;96792.78;110219;1242;59689;-67
2023/11/21 01:35:56;;;;;;;20.40;13.50;;;;;;;4.76;100.00;96798.83;110221;1242;59700;-67
2023/11/21 01:38:32;;;;;;;23.50;15.30;;;;;;;4.76;100.00;96800.02;110230;1242;71326;-67
2023/11/21 01:41:06;;;;;;;19.60;14.00;;;;;;;4.78;100.00;96794.60;110131;1240;68518;-67
2023/11/21 01:43:38;;;;;;;18.10;12.90;;;;;;;4.79;100.00;96800.02;110227;1243;69295;-67
2023/11/21 01:46:15;;;;;;;16.30;12.00;;;;;;;4.80;100.00;96798.05;110189;1242;59734;-67
2023/11/21 01:48:50;;;;;;;20.40;13.50;;;;;;;4.80;100.00;96792.02;110238;1242;59742;-67
2023/11/21 01:51:26;;;;;;;17.20;12.60;;;;;;;4.79;100.00;96795.36;110154;1241;71432;-67
2023/11/21 01:54:00;;;;;;;19.90;15.30;;;;;;;4.80;100.00;96794.09;110227;1242;69247;-67
2023/11/21 01:56:37;;;;;;;18.20;13.20;;;;;;;4.81;100.00;96790.08;110193;1242;69795;-67
2023/11/21 01:59:20;;;;;;;16.60;11.40;;;;;;;4.83;100.00;96790.14;110133;1241;59689;-67
2023/11/21 02:01:53;;;;;;;13.60;10.00;;;;;;;4.85;100.00;96788.63;110149;1241;59634;-67
2023/11/21 02:04:25;;;;;;;13.50;9.60;;;;;;;4.87;100.00;96796.48;110153;1243;71335;-67
2023/11/21 02:07:01;;;;;;;17.80;12.90;;;;;;;4.86;100.00;96802.05;110169;1245;69289;-67
2023/11/21 02:09:38;;;;;;;17.20;13.00;;;;;;;4.85;100.00;96798.95;110135;1244;69284;-67
2023/11/21 02:12:10;;;;;;;16.00;11.80;;;;;;;4.87;100.00;96794.23;110093;1244;59701;-67
2023/11/21 02:14:43;;;;;;;17.90;11.70;;;;;;;4.89;100.00;96791.14;110156;1245;59751;-67
2023/11/21 02:17:15;;;;;;;17.40;11.10;;;;;;;4.91;100.00;96794.34;110095;1245;71392;-67
2023/11/21 02:19:51;;;;;;;15.00;10.50;;;;;;;4.91;100.00;96798.32;110121;1245;68406;-67
2023/11/21 02:22:35;;;;;;;14.40;11.40;;;;;;;4.92;100.00;96786.81;110088;1244;69246;-68
2023/11/21 02:25:09;;;;;;;16.60;12.80;;;;;;;4.92;100.00;96784.95;110176;1242;59798;-66
2023/11/21 02:27:43;;;;;;;15.60;12.00;;;;;;;4.92;100.00;96787.70;110138;1244;59744;-67
2023/11/21 02:30:16;;;;;;;16.50;11.40;;;;;;;4.93;100.00;96792.30;110184;1241;71400;-67
2023/11/21 02:32:49;;;;;;;17.90;12.60;;;;;;;4.94;100.00;96782.77;110181;1245;69272;-67
2023/11/21 02:35:21;;;;;;;15.50;11.30;;;;;;;4.92;100.00;96795.97;110120;1244;68604;-67
2023/11/21 02:37:53;;;;;;;16.00;11.70;;;;;;;4.92;100.00;96798.09;109962;1245;59747;-67
2023/11/21 02:40:27;;;;;;;15.70;11.50;;;;;;;4.92;100.00;96802.54;110164;1243;59669;-67
2023/11/21 02:42:59;;;;;;;20.00;14.10;;;;;;;4.90;100.00;96803.02;110177;1241;69567;-67
2023/11/21 02:45:32;;;;;;;17.70;13.60;;;;;;;4.88;100.00;96800.19;110130;1245;69251;-67
2023/11/21 02:48:04;;;;;;;20.40;14.70;;;;;;;4.87;100.00;96802.31;110118;1241;68255;-67
2023/11/21 02:50:37;;;;;;;18.80;12.70;;;;;;;4.87;100.00;96802.87;110162;1244;59649;-67
2023/11/21 02:53:10;;;;;;;16.40;12.10;;;;;;;4.87;100.00;96805.11;110149;1245;59714;-67
2023/11/21 02:55:40;;;;;;;21.50;13.10;;;;;;;4.86;100.00;96814.29;110118;1242;71404;-67
2023/11/21 02:58:12;;;;;;;17.70;11.50;;;;;;;4.86;100.00;96813.60;110094;1246;69303;-67
2023/11/21 03:00:42;;;;;;;15.90;10.70;;;;;;;4.88;100.00;96811.27;110057;1241;69173;-67
2023/11/21 03:03:14;;;;;;;14.30;9.60;;;;;;;4.89;100.00;96813.59;110159;1243;59686;-67
2023/11/21 03:05:47;;;;;;;15.10;10.90;;;;;;;4.90;100.00;96813.90;110075;1244;59766;-67
2023/11/21 03:08:26;;;;;;;13.00;10.10;;;;;;;4.91;100.00;96812.64;110139;1245;70418;-67
2023/11/21 03:10:58;;;;;;;19.10;13.50;;;;;;;4.91;100.00;96817.42;110187;1241;69190;-67
2023/11/21 03:13:31;;;;;;;18.40;13.00;;;;;;;4.88;100.00;96819.55;110137;1244;68552;-67
2023/11/21 03:16:03;;;;;;;22.10;16.00;;;;;;;4.85;100.00;96813.83;110135;1243;60204;-67
2023/11/21 03:18:33;;;;;;;21.00;14.20;;;;;;;4.82;100.00;96816.08;110156;1244;59747;-67
2023/11/21 03:21:04;;;;;;;17.80;13.90;;;;;;;4.81;100.00;96812.69;110143;1245;71263;-67
2023/11/21 03:23:36;;;;;;;20.10;14.40;;;;;;;4.78;100.00;96806.84;110188;1245;69293;-67
2023/11/21 03:26:12;;;;;;;19.60;15.50;;;;;;;4.75;100.00;96812.55;110139;1245;69181;-67
2023/11/21 03:28:44;;;;;;;19.70;14.30;;;;;;;4.70;100.00;96814.05;110117;1245;59711;-67
2023/11/21 03:31:18;;;;;;;18.20;14.30;;;;;;;4.62;100.00;96817.60;110202;1245;59737;-67
2023/11/21 03:33:49;;;;;;;20.10;14.50;;;;;;;4.62;100.00;96810.02;110162;1244;71296;-67
2023/11/21 03:36:20;;;;;;;21.70;15.90;;;;;;;4.59;100.00;96817.97;110180;1245;69921;-67
2023/11/21 03:38:53;;;;;;;23.10;16.60;;;;;;;4.53;100.00;96814.83;110111;1241;69328;-67
2023/11/21 03:41:25;;;;;;;19.90;14.60;;;;;;;4.54;100.00;96815.48;110131;1243;59677;-67
2023/11/21 03:43:55;;;;;;;19.80;14.80;;;;;;;4.55;100.00;96825.23;110150;1241;59682;-67
2023/11/21 03:46:28;;;;;;;21.30;14.30;;;;;;;4.55;100.00;96824.02;110166;1241;71470;-67
2023/11/21 03:49:01;;;;;;;17.60;13.50;;;;;;;4.56;100.00;96826.77;110140;1245;69070;-67
2023/11/21 03:51:36;;;;;;;19.20;13.70;;;;;;;4.58;100.00;96831.96;110125;1244;69307;-67
2023/11/21 03:54:09;;;;;;;20.60;15.80;;;;;;;4.57;100.00;96837.08;110172;1245;60067;-67
2023/11/21 03:56:41;;;;;;;19.10;13.70;;;;;;;4.59;100.00;96831.26;110124;1245;59630;-67
2023/11/21 03:59:19;;;;;;;14.00;11.10;;;;;;;4.61;100.00;96826.98;110234;1245;71234;-67
2023/11/21 04:01:54;;;;;;;17.90;12.30;;;;;;;4.63;100.00;96824.45;110181;1242;68110;-67
2023/11/21 04:04:28;;;;;;;13.60;10.50;;;;;;;4.65;100.00;96817.27;110122;1245;69299;-67
2023/11/21 04:07:01;;;;;;;14.60;11.30;;;;;;;4.66;100.00;96814.12;110192;1242;59750;-67
2023/11/21 04:09:34;;;;;;;18.00;13.00;;;;;;;4.66;100.00;96815.85;110191;1241;59606;-67
2023/11/21 04:12:09;;;;;;;16.50;11.30;;;;;;;4.66;100.00;96819.45;110177;1242;70635;-66
2023/11/21 04:14:40;;;;;;;16.30;11.40;;;;;;;4.66;100.00;96820.83;110207;1242;69159;-66
2023/11/21 04:17:12;;;;;;;13.40;10.20;;;;;;;4.65;100.00;96821.02;110226;1242;69009;-67
2023/11/21 04:19:44;;;;;;;16.70;11.40;;;;;;;4.63;100.00;96822.56;110225;1242;59689;-69
2023/11/21 04:22:14;;;;;;;15.20;10.50;;;;;;;4.60;100.00;96829.27;110246;1242;59719;-68
2023/11/21 04:24:46;;;;;;;14.20;10.20;;;;;;;4.58;100.00;96829.91;110252;1242;71491;-68
2023/11/21 04:27:18;;;;;;;14.60;10.00;;;;;;;4.55;100.00;96830.60;110279;1242;69298;-68
2023/11/21 04:29:48;;;;;;;15.10;9.70;;;;;;;4.53;100.00;96832.42;110193;1242;67578;-68
2023/11/21 04:32:18;;;;;;;17.40;12.10;;;;;;;4.50;100.00;96823.33;110225;1243;59681;-68
2023/11/21 04:34:48;;;;;;;15.70;11.50;;;;;;;4.45;100.00;96829.45;110211;1241;59744;-69
2023/11/21 04:37:20;;;;;;;15.10;10.50;;;;;;;4.41;100.00;96828.13;110212;1242;71834;-70
2023/11/21 04:39:51;;;;;;;16.30;11.80;;;;;;;4.36;100.00;96823.29;110228;1242;67617;-68
2023/11/21 04:42:24;;;;;;;13.40;10.70;;;;;;;4.30;100.00;96817.75;110216;1242;69379;-68
2023/11/21 04:44:55;;;;;;;15.20;10.80;;;;;;;4.25;100.00;96813.54;110113;1244;59639;-67
2023/11/21 04:47:29;;;;;;;13.50;10.60;;;;;;;4.21;100.00;96809.61;110213;1241;59745;-69
2023/11/21 04:49:59;;;;;;;12.70;9.70;;;;;;;4.18;100.00;96808.25;110199;1242;70320;-68
2023/11/21 04:52:29;;;;;;;12.40;8.70;;;;;;;4.13;100.00;96810.42;110250;1249;69243;-68
2023/11/21 04:55:01;;;;;;;;;;;;;;;4.06;100.00;96809.27;110217;1243;68513;-68
2023/11/21 04:57:32;;;;;;;14.50;11.80;;;;;;;3.97;100.00;96809.06;110203;1242;59690;-69
2023/11/21 05:00:05;;;;;;;13.90;9.50;;;;;;;3.91;100.00;96806.84;110225;1244;59737;-68
2023/11/21 05:02:35;;;;;;;15.60;10.80;;;;;;;3.85;100.00;96813.73;110277;1242;71355;-67
2023/11/21 05:05:05;;;;;;;13.10;9.40;;;;;;;3.79;100.00;96815.06;110195;1241;68597;-70
2023/11/21 05:07:35;;;;;;;16.10;10.10;;;;;;;3.75;100.00;96815.81;110252;1244;69300;-69
2023/11/21 05:10:11;;;;;;;16.40;11.40;;;;;;;3.71;100.00;96821.04;110233;1242;59709;-69
2023/11/21 05:12:42;;;;;;;18.10;12.80;;;;;;;3.65;100.00;96819.48;110242;1242;59759;-67
2023/11/21 05:15:17;;;;;;;20.40;14.00;;;;;;;3.61;100.00;96819.35;110163;1244;70847;-67
2023/11/21 05:17:49;;;;;;;15.60;11.70;;;;;;;3.57;100.00;96822.29;110277;1240;68449;-68
2023/11/21 05:20:21;;;;;;;15.50;10.20;;;;;;;3.56;100.00;96823.91;110243;1241;68545;-68
2023/11/21 05:22:50;;;;;;;16.40;12.30;;;;;;;3.55;100.00;96825.64;110227;1240;59706;-68
2023/11/21 05:25:21;;;;;;;18.40;12.00;;;;;;;3.56;100.00;96824.41;110238;1241;59683;-68
2023/11/21 05:27:52;;;;;;;16.10;10.50;;;;;;;3.56;100.00;96822.55;110222;1240;70665;-67
2023/11/21 05:30:22;;;;;;;18.00;11.70;;;;;;;3.56;100.00;96825.81;110212;1245;69827;-66
2023/11/21 05:32:52;;;;;;;16.50;10.90;;;;;;;3.56;100.00;96821.50;110138;1245;68524;-68
2023/11/21 05:35:22;;;;;;;21.30;15.80;;;;;;;3.55;100.00;96818.92;110193;1242;59670;-66
2023/11/21 05:37:52;;;;;;;18.30;12.50;;;;;;;3.54;100.00;96821.45;110202;1241;59721;-66
2023/11/21 05:40:22;;;;;;;17.60;11.20;;;;;;;3.53;100.00;96832.87;110187;1242;70765;-66
2023/11/21 05:42:52;;;;;;;15.60;11.30;;;;;;;3.52;100.00;96835.82;110175;1242;69087;-65
2023/11/21 05:45:22;;;;;;;14.60;10.80;;;;;;;3.54;100.00;96836.41;110184;1241;69725;-66
2023/11/21 05:47:52;;;;;;;15.30;9.80;;;;;;;3.56;100.00;96840.44;110216;1242;59737;-66
2023/11/21 05:50:23;;;;;;;19.70;13.20;;;;;;;3.58;100.00;96837.59;110221;1242;59693;-66
2023/11/21 05:52:52;;;;;;;18.50;12.10;;;;;;;3.60;100.00;96836.10;110256;1242;70833;-66
2023/11/21 05:55:25;;;;;;;15.90;9.90;;;;;;;3.62;100.00;96836.00;110270;1248;69128;-67
2023/11/21 05:57:55;;;;;;;19.10;12.00;;;;;;;3.64;100.00;96838.30;110206;1242;69372;-66
2023/11/21 06:00:25;;;;;;;;;;;;;;;3.67;100.00;96840.75;110203;1242;59739;-66
2023/11/21 06:02:55;;;;;;;14.20;9.40;;;;;;;3.69;100.00;96839.77;110226;1242;59696;-66
2023/11/21 06:05:26;;;;;;;;;;;;;;;3.71;100.00;96840.00;110188;1242;70901;-66
2023/11/21 06:07:58;;;;;;;;;;;;;;;3.71;100.00;96845.48;110254;1242;68682;-66
2023/11/21 06:10:28;;;;;;;22.80;15.20;;;;;;;3.73;100.00;96847.45;110095;1246;68511;-66
2023/11/21 06:12:58;;;;;;;23.00;14.50;;;;;;;3.75;100.00;96850.44;110163;1249;59741;-66
2023/11/21 06:15:31;;;;;;;19.20;12.40;;;;;;;3.80;100.00;96846.36;110197;1242;59678;-66
2023/11/21 06:18:01;;;;;;;17.30;11.50;;;;;;;3.87;100.00;96844.30;110237;1248;71368;-66
2023/11/21 06:20:32;;;;;;;21.90;14.00;;;;;;;3.97;100.00;96841.82;110185;1242;69264;-66
2023/11/21 06:23:03;;;;;;;22.70;15.10;;;;;;;4.04;100.00;96845.36;110210;1241;69260;-66
2023/11/21 06:25:36;;;;;;;17.00;11.90;;;;;;;4.11;100.00;96845.71;110179;1241;59703;-66
2023/11/21 06:28:06;;;;;;;19.50;12.80;;;;;;;4.18;100.00;96846.70;110185;1245;59741;-66
2023/11/21 06:30:35;;;;;;;19.10;14.60;;;;;;;4.27;100.00;96843.77;110189;1242;70515;-66
2023/11/21 06:33:06;;;;;;;19.10;13.10;;;;;;;4.37;100.00;96844.95;110247;1240;68427;-66
2023/11/21 06:35:35;;;;;;;19.10;14.40;;;;;;;4.45;100.00;96843.12;110178;1242;69674;-66
2023/11/21 06:38:05;;;;;;;16.10;11.50;;;;;;;4.54;100.00;96847.75;110160;1242;59704;-66
2023/11/21 06:40:34;;;;;;;17.90;12.30;;;;;;;4.68;100.00;96850.77;110167;1242;59698;-67
2023/11/21 06:43:06;;;;;;;15.20;11.20;;;;;;;4.85;100.00;96850.43;110162;1244;71532;-67
2023/11/21 06:45:36;;;;;;;18.80;13.80;;;;;;;5.06;100.00;96855.23;110203;1242;67433;-66
2023/11/21 06:48:07;;;;;;;22.10;15.50;;;;;;;5.33;100.00;96852.09;110185;1242;68302;-66
2023/11/21 06:50:37;;;;;;;28.30;21.90;;;;;;;5.62;100.00;96853.71;110203;1243;59748;-67
2023/11/21 06:53:09;;;;;;;28.90;20.80;;;;;;;5.88;100.00;96856.83;110233;1244;59683;-66
2023/11/21 06:55:38;;;;;;;21.50;16.20;;;;;;;6.16;100.00;96863.67;110200;1243;71461;-66
2023/11/21 06:58:09;;;;;;;18.10;13.40;;;;;;;6.44;100.00;96868.50;110168;1243;67529;-66
2023/11/21 07:00:38;;;;;;;15.00;11.70;;;;;;;6.81;100.00;96877.28;110191;1242;69855;-66
2023/11/21 07:03:07;;;;;;;15.10;11.90;;;;;;;7.22;100.00;96872.86;110197;1242;59695;-67
2023/11/21 07:05:37;;;;;;;13.90;10.20;;;;;;;7.66;100.00;96871.01;110233;1242;59606;-66
2023/11/21 07:08:08;;;;;;;12.00;9.70;;;;;;;8.22;100.00;96868.11;110192;1241;72393;-66
2023/11/21 07:10:37;;;;;;;14.00;10.90;;;;;;;8.88;100.00;96864.20;110173;1242;69221;-67
2023/11/21 07:13:09;;;;;;;12.30;10.50;;;;;;;9.51;100.00;96865.46;110220;1242;69867;-68
2023/11/21 07:15:40;;;;;;;16.00;12.70;;;;;;;10.12;100.00;96870.98;110188;1241;59699;-67
2023/11/21 07:18:09;;;;;;;;;;;;;;;10.52;100.00;96867.10;110176;1241;59729;-67
2023/11/21 07:20:38;;;;;;;13.20;11.00;;;;;;;10.73;100.00;96862.59;110159;1240;72335;-67
2023/11/21 07:23:08;;;;;;;16.80;14.80;;;;;;;10.66;100.00;96858.46;110179;1250;69669;-67
2023/11/21 07:25:37;;;;;;;16.70;14.60;;;;;;;10.72;100.00;96861.84;110167;1243;69612;-67
2023/11/21 07:28:07;;;;;;;16.90;15.10;;;;;;;10.57;100.00;96862.85;110150;1242;59672;-67
2023/11/21 07:30:37;;;;;;;18.40;16.50;;;;;;;10.29;100.00;96863.94;110192;1242;59666;-68
2023/11/21 07:33:07;;;;;;;20.30;17.20;;;;;;;10.10;100.00;96863.98;110208;1242;71347;-67
2023/11/21 07:35:36;;;;;;;;;;;;;;;9.88;100.00;96861.84;110220;1245;69219;-68
2023/11/21 07:38:07;;;;;;;15.90;14.10;;;;;;;9.91;100.00;96863.90;110215;1242;68717;-68
2023/11/21 07:40:36;;;;;;;;;;;;;;;10.14;100.00;96860.72;110202;1241;60159;-68
2023/11/21 07:43:05;;;;;;;15.00;13.40;;;;;;;10.54;99.02;96864.17;110209;1242;59698;-68
2023/11/21 07:45:36;;;;;;;14.10;11.70;;;;;;;11.33;98.98;96865.02;110065;1245;70638;-68
2023/11/21 07:48:06;;;;;;;13.10;11.40;;;;;;;11.93;92.84;96866.27;110239;1242;69160;-68
2023/11/21 07:50:36;;;;;;;14.20;12.40;;;;;;;12.33;88.04;96866.79;110136;1242;69215;-68
2023/11/21 07:53:05;;;;;;;;;;;;;;;13.05;92.00;96862.59;110149;1243;59694;-68
2023/11/21 07:55:36;;;;;;;10.60;9.50;;;;;;;13.34;91.01;96861.11;110189;1242;59763;-68
2023/11/21 07:58:05;;;;;;;10.20;9.10;;;;;;;14.17;97.23;96860.62;110144;1243;71946;-68
2023/11/21 08:00:35;;;;;;;11.80;10.40;;;;;;;14.66;85.87;96857.69;110213;1242;68973;-68
2023/11/21 08:03:05;;;;;;;10.00;9.00;;;;;;;15.22;92.60;96854.94;110202;1242;69843;-67
2023/11/21 08:05:36;;;;;;;10.60;9.50;;;;;;;15.73;97.76;96855.21;110171;1246;59742;-67
2023/11/21 08:08:05;;;;;;;10.70;8.80;;;;;;;15.94;81.69;96853.63;110196;1244;59640;-67
2023/11/21 08:10:35;;;;;;;11.00;9.10;;;;;;;16.28;82.90;96858.69;110197;1242;71904;-65
2023/11/21 08:13:04;;;;;;;;;;;;;;;16.49;77.49;96857.45;110141;1243;69730;-66
2023/11/21 08:15:35;;;;;;;12.40;9.60;;;;;;;16.76;74.92;96860.65;110164;1242;70197;-66
2023/11/21 08:18:07;;;;;;;13.80;12.00;;;;;;;17.13;78.19;96860.90;110184;1242;59736;-66
2023/11/21 08:20:39;;;;;;;8.30;7.40;;;;;;;17.07;68.40;96857.67;110188;1247;59697;-66
2023/11/21 08:23:08;;;;;;;11.30;9.90;;;;;;;17.54;76.48;96855.52;110169;1241;70813;-66
2023/11/21 08:25:38;;;;;;;;;;;;;;;17.53;67.90;96858.66;110168;1242;69288;-66
2023/11/21 08:28:08;;;;;;;8.80;6.90;;;;;;;17.56;66.87;96860.04;110189;1243;69873;-66
2023/11/21 08:30:38;;;;;;;7.20;6.00;;;;;;;17.78;69.11;96861.27;110181;1242;59750;-67
2023/11/21 08:33:08;;;;;;;7.40;6.50;;;;;;;18.06;64.73;96863.22;110183;1240;59724;-67
2023/11/21 08:35:39;;;;;;;6.70;5.70;;;;;;;18.36;68.97;96864.08;110205;1244;70830;-65
2023/11/21 08:38:10;;;;;;;7.10;5.90;;;;;;;18.41;59.45;96855.49;110219;1242;69373;-67
2023/11/21 08:40:39;;;;;;;5.10;4.20;;;;;;;18.48;58.30;96861.45;110095;1246;69303;-65
2023/11/21 08:43:11;;;;;;;5.20;4.60;;;;;;;18.75;57.15;96860.27;110183;1242;59696;-65
2023/11/21 08:45:40;;;;;;;6.60;4.30;;;;;;;19.19;59.22;96857.77;110203;1242;59712;-67
2023/11/21 08:48:12;;;;;;;5.10;4.00;;;;;;;19.41;53.49;96855.64;110266;1241;72040;-66
2023/11/21 08:50:42;;;;;;;5.40;4.30;;;;;;;18.84;50.34;96860.36;110247;1250;69298;-66
2023/11/21 08:53:11;;;;;;;6.60;4.70;;;;;;;19.53;57.16;96853.30;110224;1250;69523;-67
2023/11/21 08:55:41;;;;;;;5.00;4.40;;;;;;;19.78;54.79;96850.77;110257;1243;59744;-66
2023/11/21 08:58:12;;;;;;;5.70;4.70;;;;;;;19.27;50.56;96857.08;110231;1245;59730;-66
2023/11/21 09:00:41;;;;;;;5.20;3.90;;;;;;;19.97;55.15;96857.21;110294;1241;71430;-65
2023/11/21 09:03:11;;;;;;;4.90;3.50;;;;;;;20.02;50.62;96857.08;110290;1242;68653;-65
2023/11/21 09:05:41;;;;;;;5.30;3.80;;;;;;;20.22;54.06;96854.89;110168;1242;68535;-64
2023/11/21 09:08:10;;;;;;;4.70;3.60;;;;;;;20.64;49.99;96848.65;110219;1242;59690;-65
2023/11/21 09:10:39;;;;;;;;;;;;;;;20.30;46.50;96844.31;110222;1241;59695;-65
2023/11/21 09:13:08;;;;;;;5.40;3.90;;;;;;;19.72;45.98;96837.26;110252;1249;71275;-65
2023/11/21 09:15:38;;;;;;;5.40;4.50;;;;;;;20.23;48.73;96836.70;110199;1242;67948;-65
2023/11/21 09:18:07;;;;;;;;;;;;;;;19.35;47.04;96833.54;110201;1241;69703;-65
2023/11/21 09:20:36;;;;;;;6.00;4.00;;;;;;;20.31;49.00;96830.41;110166;1242;59747;-65
2023/11/21 09:23:05;;;;;;;5.70;4.20;;;;;;;20.64;46.45;96827.35;110235;1242;59596;-65
2023/11/21 09:25:34;;;;;;;;;;;;;;;21.19;45.35;96823.87;110156;1242;72344;-65
2023/11/21 09:28:09;;;;;;;4.80;4.00;;;;;;;21.04;45.27;96822.35;110201;1242;69085;-64
2023/11/21 09:30:38;;;;;;;4.10;3.40;;;;;;;20.91;44.79;96817.04;110175;1243;69838;-65
2023/11/21 09:33:10;;;;;;;4.90;3.70;;;;;;;19.95;44.45;96813.59;110190;1242;59740;-65
2023/11/21 09:35:39;;;;;;;5.60;4.40;;;;;;;20.60;45.16;96809.93;110169;1240;59683;-65
2023/11/21 09:38:10;;;;;;;5.20;4.10;;;;;;;20.25;43.81;96806.58;110188;1249;72345;-64
2023/11/21 09:40:41;;;;;;;5.80;3.60;;;;;;;20.47;44.92;96806.42;110222;1249;69840;-64
2023/11/21 09:43:17;;;;;;;3.70;3.30;;;;;;;20.68;45.26;96797.38;110183;1242;69862;-65
2023/11/21 09:45:53;;;;;;;5.00;3.80;;;;;;;21.15;42.45;96798.27;110170;1242;59709;-65
2023/11/21 09:48:25;;;;;;;4.20;3.60;;;;;;;21.80;43.53;96800.64;110199;1242;59814;-64
2023/11/21 09:50:54;;;;;;;5.30;3.90;;;;;;;22.34;43.06;96800.81;110102;1241;69736;-65
2023/11/21 09:53:27;;;;;;;4.40;3.50;;;;;;;22.44;41.26;96796.69;110249;1243;69282;-65
2023/11/21 09:55:56;;;;;;;5.40;3.80;;;;;;;22.18;41.86;96791.27;110211;1244;68550;-65
2023/11/21 09:58:27;;;;;;;4.30;3.30;;;;;;;23.11;43.62;96790.41;110199;1242;59693;-65
2023/11/21 10:01:03;;;;;;;4.30;2.70;;;;;;;23.21;41.42;96791.55;110172;1248;59657;-65
2023/11/21 10:03:36;;;;;;;5.30;3.80;;;;;;;22.50;39.56;96795.89;110129;1246;71603;-63
2023/11/21 10:06:08;;;;;;;3.80;3.20;;;;;;;21.24;42.14;96792.51;110103;1245;69729;-66
2023/11/21 10:08:37;;;;;;;3.60;2.90;;;;;;;21.26;42.37;96789.95;110144;1241;69221;-64
2023/11/21 10:11:25;;;;;;;4.70;3.60;;;;;;;21.10;42.27;96789.65;110173;1245;59735;-65
2023/11/21 10:13:58;;;;;;;4.40;3.40;;;;;;;21.08;42.38;96790.50;110224;1247;59663;-64
2023/11/21 10:16:29;;;;;;;3.40;2.30;;;;;;;21.42;41.93;96784.60;110168;1245;71230;-64
2023/11/21 10:19:01;;;;;;;3.50;3.10;;;;;;;20.83;41.54;96783.99;110140;1241;68589;-64
2023/11/21 10:21:39;;;;;;;3.90;3.40;;;;;;;21.01;42.37;96778.43;110155;1243;69193;-65
2023/11/21 10:24:08;;;;;;;;;;;;;;;21.27;41.67;96773.42;110104;1244;60121;-66
2023/11/21 10:26:38;;;;;;;4.60;3.70;;;;;;;20.88;42.51;96773.77;110158;1246;59696;-65
2023/11/21 10:29:21;;;;;;;3.80;3.10;;;;;;;21.21;41.83;96776.17;110179;1241;71814;-66
2023/11/21 10:31:51;;;;;;;5.00;2.90;;;;;;;20.75;43.18;96770.84;110224;1245;69275;-66
2023/11/21 10:34:21;;;;;;;3.90;3.40;;;;;;;21.70;42.69;96769.85;110217;1243;69425;-66
2023/11/21 10:36:51;;;;;;;4.40;3.40;;;;;;;22.33;42.40;96769.45;110156;1245;59706;-65
2023/11/21 10:39:23;;;;;;;5.10;4.10;;;;;;;21.93;39.59;96765.83;110216;1245;59669;-64
2023/11/21 10:41:54;;;;;;;4.70;3.30;;;;;;;21.68;40.46;96762.61;110171;1243;71721;-66
2023/11/21 10:44:25;;;;;;;3.70;3.20;;;;;;;21.75;39.48;96761.05;110177;1244;69102;-67
2023/11/21 10:46:59;;;;;;;3.90;3.00;;;;;;;21.78;39.43;96756.60;110184;1243;69313;-66
2023/11/21 10:49:29;;;;;;;5.50;3.80;;;;;;;22.40;39.47;96759.17;110232;1245;59753;-66
2023/11/21 10:51:59;;;;;;;4.20;3.60;;;;;;;22.35;39.45;96756.17;110193;1243;59663;-66
2023/11/21 10:54:29;;;;;;;4.30;3.10;;;;;;;21.95;40.19;96752.02;110139;1246;71979;-64
2023/11/21 10:57:01;;;;;;;4.10;2.60;;;;;;;21.21;41.16;96748.25;110185;1243;69102;-64
2023/11/21 10:59:31;;;;;;;4.70;2.60;;;;;;;21.31;40.52;96749.84;109736;1244;579590;-64
2023/11/21 11:02:16;;;;;;;3.50;2.90;;;;;;;21.33;41.75;96747.25;110218;1246;59689;-64
2023/11/21 11:04:48;;;;;;;3.20;2.00;;;;;;;20.58;41.76;96747.40;110216;1242;59735;-64
2023/11/21 11:07:20;;;;;;;4.50;2.80;;;;;;;20.42;42.28;96747.89;110204;1241;71082;-64
2023/11/21 11:09:49;;;;;;;3.80;2.40;;;;;;;20.14;43.33;96748.36;110149;1245;68644;-65
2023/11/21 11:12:19;;;;;;;3.90;2.90;;;;;;;20.37;41.45;96749.68;110246;1243;68883;-64
2023/11/21 11:14:48;;;;;;;6.20;3.70;;;;;;;20.56;42.12;96749.46;110253;1242;59673;-64
2023/11/21 11:17:22;;;;;;;3.10;2.70;;;;;;;20.08;41.40;96748.70;110233;1242;59700;-64
2023/11/21 11:19:51;;;;;;;3.80;2.80;;;;;;;19.80;42.22;96744.99;110187;1243;70634;-64
2023/11/21 11:22:35;;;;;;;;;;;;;;;20.06;42.38;96744.52;110211;1242;69589;-64
2023/11/21 11:25:37;;;;;;;5.60;4.30;;;;;;;19.58;42.80;96743.02;110217;1242;69887;-64
2023/11/21 11:28:33;;;;;;;5.40;4.40;;;;;;;19.16;43.64;96741.37;110229;1242;59669;-64
2023/11/21 11:31:25;;;;;;;5.70;3.50;;;;;;;18.94;44.87;96741.45;110287;1242;59668;-65
2023/11/21 11:34:05;;;;;;;3.80;2.70;;;;;;;18.90;45.06;96739.88;110249;1242;70820;-64
2023/11/21 11:36:48;;;;;;;5.30;4.30;;;;;;;18.88;45.07;96739.15;110208;1241;69201;-64
2023/11/21 11:39:31;;;;;;;4.60;3.60;;;;;;;19.27;44.07;96736.60;110212;1241;69243;-64
2023/11/21 11:42:06;;;;;;;5.70;3.90;;;;;;;19.08;44.37;96737.18;110146;1242;59723;-64